Aérodrome :
LOGIN :

S'inscrire | Disclaimer

   EN    FR    IT 

 










Légende :    VFR   VFR Marginal   IFR   IFR Intensif   IFR Très Intensif
Visi : 
Plafond : 
>= 8 km
>= 3000ft
5 à 8 km
1000 à 3000 ft
1500m à 5 km
500 à 1000 ft
800 à 1500m
200 à 500 ft
< 800m
< 200 ft
Symboles :   Orages  Brouillard  Fortes neiges  Fortes précipitations  Vent > 20 kt
SIGMETs :   Divers  Orages  Givrage  Turbulence  Onde Orograph.  Cendres Volcan.






- Altitude de l'aérodrome : 2945 ft
- Code IATA : RGS


LEBG - Burgos

DERNIER METAR :
  • 011230Z 32005KT 9999 SCT055 18/04 Q1018

METARs EXPIRÉS :
  • 011200Z 28005KT 9999 SCT050 18/05 Q1018
  • 011130Z 19005KT 9999 SCT056 18/04 Q1019
  • 011100Z 29006KT 220V010 9999 FEW045 18/06 Q1019
  • 011030Z 24005KT 150V320 9999 FEW045 16/07 Q1019
  • 011000Z 24005KT 180V300 9999 FEW045 16/06 Q1019

TAF TAF LEBG
Valide du 01 à 09h jusqu'au 02 à 09h UTC


010800Z 0109/0209 04012KT 9999 FEW030 SCT045 TX23/0115Z TN09/0205Z
TEMPO 0109/0120 VRB05KT
PROB40
TEMPO 0111/0118 27006KT
PROB30
TEMPO 0112/0117 FEW050TCU
BECMG 0120/0121 27012KT
PROB30
TEMPO 0120/0121 27015G25KT



MET'MAP, la Météo Aéronautique d'un coup d'oeil ! - Copyright ORBIFLY Décembre 2007 - Disclaimer

ORBIFLY MET'MAP TEAM :

Programmation & Développement : Alexandra Zaïnal
Sur une idée originale de : Baudouin d'Aumeries
Assistance à la programmation : Marc-Olivier Méhu
Soutien technique & logistique : Manuel Goepfert

Contact : metmap@orbifly.com




SOURCES & CREDITS :

   NOAA